DW8701 Weather Reports


time (UTC)temp
C
wind
direction
speed
KPH
gust
KPH
rain 1hr
cm
rain 24hr
cm
rain mn
cm
humidity
%
barometer
mb
20200229104630 17 33 9.7 14.5 0.00 0.00 0.00 41 1015.7
20200229103129 17 352 8.0 14.5 0.00 0.00 0.00 42 1015.7
20200229101625 17 15 8.0 12.9 0.00 0.00 0.00 42 1015.8
20200229094630 17 16 4.8 9.7 0.00 0.00 0.00 41 1016.1
20200229093129 18 356 4.8 11.3 0.00 0.00 0.00 40 1016.2
20200229084559 18 19 1.6 8.0 0.00 0.00 0.00 42 1016.4
20200229083112 18 34 4.8 11.3 0.00 0.00 0.00 40 1016.6
20200229081625 18 349 6.4 11.3 0.00 0.00 0.00 41 1016.7
20200229074703 17 12 4.8 12.9 0.00 0.00 0.00 43 1017.1
20200229073056 18 56 6.4 14.5 0.00 0.00 0.00 44 1017.5
20200229071615 18 30 1.6 9.7 0.00 0.00 0.00 43 1017.5
20200229064534 18 9 1.6 9.7 0.00 0.00 0.00 47 1017.4
20200229063104 18 1 4.8 8.0 0.00 0.00 0.00 46 1017.6
20200229061544 17 11 1.6 6.4 0.00 0.00 0.00 50 1017.5
20200229054551 18 20 3.2 8.0 0.00 0.00 0.00 51 1017.7
20200229053119 17 13 3.2 6.4 0.00 0.00 0.00 53 1017.8
20200229051611 17 22 1.6 8.0 0.00 0.00 0.00 58 1017.9
20200229044642 17 33 0.0 4.8 0.00 0.00 0.00 58 1018.0
20200229043101 17 29 1.6 6.4 0.00 0.00 0.00 59 1018.1
20200229041603 17 15 0.0 3.2 0.00 0.00 0.00 65 1018.0
20200229034548 17 15 0.0 1.6 0.00 0.00 0.00 65 1018.0
20200229033100 18 315 0.0 0.0 0.00 0.00 0.00 69 1017.9
20200229031551 18 317 0.0 3.2 0.00 0.00 0.00 65 1017.8
20200229024543 19 272 0.0 4.8 0.00 0.00 0.00 54 1017.3
20200229023025 20 29 0.0 1.6 0.00 0.00 0.00 52 1017.2
20200229021528 20 29 0.0 0.0 0.00 0.00 0.00 50 1017.0
20200229014537 21 49 0.0 11.3 0.00 0.00 0.00 45 1016.8
20200229013039 21 134 12.9 19.3 0.00 0.00 0.00 47 1016.8
20200229011551 21 115 12.9 22.5 0.00 0.00 0.00 49 1016.7
20200229004609 22 115 16.1 24.1 0.00 0.00 0.00 49 1016.4
20200229003054 22 86 11.3 20.9 0.00 0.00 0.00 51 1016.2
20200229001531 22 120 16.1 27.4 0.00 0.00 0.00 57 1016.1
20200228234543 22 163 14.5 29.0 0.00 0.00 0.00 66 1016.0
20200228233042 22 156 14.5 27.4 0.00 0.00 0.00 64 1015.9
20200228231600 22 115 16.1 29.0 0.00 0.00 0.00 65 1015.9
20200228224624 21 100 17.7 33.8 0.00 0.00 0.00 67 1015.9
20200228223101 21 86 17.7 35.4 0.00 0.00 0.00 64 1016.0
20200228221600 21 165 22.5 33.8 0.00 0.00 0.00 64 1016.1
20200228214526 22 161 17.7 30.6 0.00 0.00 0.00 63 1016.0
20200228213025 22 152 12.9 24.1 0.00 0.00 0.00 63 1016.3
20200228211547 21 200 19.3 32.2 0.00 0.00 0.00 63 1016.2
20200228204531 22 153 14.5 30.6 0.00 0.00 0.00 62 1016.5
20200228203120 22 158 19.3 30.6 0.00 0.00 0.00 61 1016.8
20200228201518 22 143 14.5 32.2 0.00 0.00 0.00 61 1017.0
20200228194521 22 96 17.7 32.2 0.00 0.00 0.00 64 1017.5
20200228193015 22 72 19.3 33.8 0.00 0.00 0.00 62 1017.7
20200228191533 22 119 22.5 32.2 0.00 0.00 0.00 61 1017.9
20200228190034 22 151 16.1 30.6 0.00 0.00 0.00 62 1018.2
20200228184513 22 172 17.7 30.6 0.00 0.00 0.00 60 1018.4
20200228181511 22 173 14.5 30.6 0.00 0.00 0.00 58 1018.9
20200228180008 22 136 16.1 32.2 0.00 0.00 0.00 54 1018.9
20200228174504 22 100 17.7 27.4 0.00 0.00 0.00 47 1018.9
20200228171518 22 135 12.9 25.7 0.00 0.00 0.00 44 1019.0
20200228170014 22 112 12.9 24.1 0.00 0.00 0.00 44 1019.0
20200228164513 22 75 8.0 19.3 0.00 0.00 0.00 47 1018.9
20200228161726 22 214 0.0 3.2 0.00 0.00 0.00 36 1018.9
20200228160258 21 134 0.0 8.0 0.00 0.00 0.00 31 1018.7
20200228154754 22 128 0.0 3.2 0.00 0.00 0.00 27 1018.5
20200228151607 20 6 3.2 6.4 0.00 0.00 0.00 27 1018.2
20200228150154 18 7 1.6 9.7 0.00 0.00 0.00 28 1018.1
20200228144609 18 16 6.4 12.9 0.00 0.00 0.00 27 1018.0
20200228141606 17 1 3.2 12.9 0.00 0.00 0.00 28 1017.7
20200228140102 16 338 6.4 12.9 0.00 0.00 0.00 28 1017.5
20200228134713 16 16 6.4 17.7 0.00 0.00 0.00 28 1017.4
20200228131635 17 13 6.4 16.1 0.00 0.00 0.00 26 1017.1
20200228130204 17 5 8.0 14.5 0.00 0.00 0.00 26 1017.0
20200228124642 16 15 8.0 12.9 0.00 0.00 0.00 27 1016.9
20200228121648 17 11 6.4 11.3 0.00 0.00 0.00 26 1016.7
20200228120111 16 47 6.4 11.3 0.00 0.00 0.00 28 1016.7
20200228114640 16 6 4.8 16.1 0.00 0.00 0.00 29 1016.5
20200228111543 16 11 4.8 9.7 0.00 0.00 0.00 30 1016.5
20200228110045 16 6 4.8 11.3 0.00 0.00 0.00 30 1016.6